Terminal Aerodrome Forecast
Issued by NWS Binghamton, NY

Home | Current Version | Previous Version | Text Only | Print | Product List | Glossary On
Versions: 1 2 3 4 5 6 7 8 9 10 11 12 13 14 15 16 17 18 19 20 21 22
000
FTUS41 KBGM 190902 AAA
TAFAVP
TAF AMD
KAVP 190902Z 1909/2006 VRB03KT 4SM -RASN OVC025
      TEMPO 1909/1911 2SM -SN BR OVC012
     FM191200 36007G13KT P6SM -SHRA OVC012
     FM191600 32012G22KT P6SM OVC020
     FM192200 31014G24KT P6SM -SHSN OVC025=

USA.gov is the U.S. government's official web portal to all federal, state and local government web resources and services.